sensor_id;sensor_type;location;lat;lon;timestamp;P1;durP1;ratioP1;P2;durP2;ratioP2
21281;SDS011;10800;53.096;18.328;2024-02-16T00:04:10;29.90;;;15.07;;
21281;SDS011;10800;53.096;18.328;2024-02-16T00:09:16;27.17;;;14.20;;
21281;SDS011;10800;53.096;18.328;2024-02-16T00:14:22;33.30;;;15.10;;
21281;SDS011;10800;53.096;18.328;2024-02-16T00:19:28;27.97;;;12.93;;
21281;SDS011;10800;53.096;18.328;2024-02-16T00:24:34;30.60;;;15.90;;
21281;SDS011;10800;53.096;18.328;2024-02-16T00:29:40;31.17;;;15.20;;
21281;SDS011;10800;53.096;18.328;2024-02-16T00:34:46;35.13;;;15.17;;
21281;SDS011;10800;53.096;18.328;2024-02-16T00:39:52;35.53;;;15.73;;
21281;SDS011;10800;53.096;18.328;2024-02-16T00:44:59;25.40;;;14.40;;
21281;SDS011;10800;53.096;18.328;2024-02-16T00:50:05;27.43;;;14.30;;
21281;SDS011;10800;53.096;18.328;2024-02-16T00:55:12;29.67;;;14.03;;
21281;SDS011;10800;53.096;18.328;2024-02-16T01:00:18;34.93;;;16.30;;
21281;SDS011;10800;53.096;18.328;2024-02-16T01:05:25;30.47;;;15.27;;
21281;SDS011;10800;53.096;18.328;2024-02-16T01:10:30;31.60;;;14.63;;
21281;SDS011;10800;53.096;18.328;2024-02-16T01:15:36;29.60;;;14.87;;
21281;SDS011;10800;53.096;18.328;2024-02-16T01:20:42;34.00;;;14.43;;
21281;SDS011;10800;53.096;18.328;2024-02-16T01:25:48;32.00;;;14.17;;
21281;SDS011;10800;53.096;18.328;2024-02-16T01:30:54;35.90;;;15.03;;
21281;SDS011;10800;53.096;18.328;2024-02-16T01:36:02;42.73;;;14.27;;
21281;SDS011;10800;53.096;18.328;2024-02-16T01:41:08;29.10;;;14.00;;
21281;SDS011;10800;53.096;18.328;2024-02-16T01:46:14;32.23;;;14.10;;
21281;SDS011;10800;53.096;18.328;2024-02-16T01:51:20;37.57;;;15.73;;
21281;SDS011;10800;53.096;18.328;2024-02-16T01:56:29;44.43;;;14.70;;
21281;SDS011;10800;53.096;18.328;2024-02-16T02:01:35;29.13;;;15.47;;
21281;SDS011;10800;53.096;18.328;2024-02-16T02:06:41;36.20;;;14.37;;
21281;SDS011;10800;53.096;18.328;2024-02-16T02:11:46;34.43;;;14.00;;
21281;SDS011;10800;53.096;18.328;2024-02-16T02:16:52;32.77;;;14.13;;
21281;SDS011;10800;53.096;18.328;2024-02-16T02:21:59;32.60;;;16.03;;
21281;SDS011;10800;53.096;18.328;2024-02-16T02:27:04;34.20;;;13.40;;
21281;SDS011;10800;53.096;18.328;2024-02-16T02:32:10;28.13;;;13.63;;
21281;SDS011;10800;53.096;18.328;2024-02-16T02:37:16;37.20;;;15.77;;
21281;SDS011;10800;53.096;18.328;2024-02-16T02:42:22;27.70;;;14.40;;
21281;SDS011;10800;53.096;18.328;2024-02-16T02:47:27;27.23;;;13.73;;
21281;SDS011;10800;53.096;18.328;2024-02-16T02:52:33;31.77;;;14.27;;
21281;SDS011;10800;53.096;18.328;2024-02-16T02:57:38;30.23;;;15.17;;
21281;SDS011;10800;53.096;18.328;2024-02-16T03:02:44;36.77;;;13.97;;
21281;SDS011;10800;53.096;18.328;2024-02-16T03:07:51;32.77;;;14.20;;
21281;SDS011;10800;53.096;18.328;2024-02-16T03:12:56;30.60;;;12.63;;
21281;SDS011;10800;53.096;18.328;2024-02-16T03:18:02;30.80;;;12.27;;
21281;SDS011;10800;53.096;18.328;2024-02-16T03:23:09;31.30;;;14.27;;
21281;SDS011;10800;53.096;18.328;2024-02-16T03:28:14;30.10;;;13.10;;
21281;SDS011;10800;53.096;18.328;2024-02-16T03:33:20;28.50;;;14.10;;
21281;SDS011;10800;53.096;18.328;2024-02-16T03:38:26;31.20;;;14.97;;
21281;SDS011;10800;53.096;18.328;2024-02-16T03:43:31;30.07;;;14.23;;
21281;SDS011;10800;53.096;18.328;2024-02-16T03:48:37;37.63;;;15.83;;
21281;SDS011;10800;53.096;18.328;2024-02-16T03:53:45;33.77;;;14.47;;
21281;SDS011;10800;53.096;18.328;2024-02-16T03:58:51;44.53;;;14.80;;
21281;SDS011;10800;53.096;18.328;2024-02-16T04:03:56;33.90;;;15.03;;
21281;SDS011;10800;53.096;18.328;2024-02-16T04:09:02;35.17;;;13.60;;
21281;SDS011;10800;53.096;18.328;2024-02-16T04:14:09;25.13;;;12.03;;
21281;SDS011;10800;53.096;18.328;2024-02-16T04:19:15;26.67;;;13.37;;
21281;SDS011;10800;53.096;18.328;2024-02-16T04:24:20;32.73;;;14.30;;
21281;SDS011;10800;53.096;18.328;2024-02-16T04:34:37;27.20;;;13.90;;
21281;SDS011;10800;53.096;18.328;2024-02-16T04:39:43;23.10;;;12.10;;
21281;SDS011;10800;53.096;18.328;2024-02-16T04:44:49;27.60;;;12.60;;
21281;SDS011;10800;53.096;18.328;2024-02-16T04:49:55;27.77;;;13.17;;
21281;SDS011;10800;53.096;18.328;2024-02-16T04:55:00;29.13;;;13.67;;
21281;SDS011;10800;53.096;18.328;2024-02-16T05:00:06;28.17;;;13.37;;
21281;SDS011;10800;53.096;18.328;2024-02-16T05:05:13;28.47;;;13.67;;
21281;SDS011;10800;53.096;18.328;2024-02-16T05:10:19;29.63;;;13.40;;
21281;SDS011;10800;53.096;18.328;2024-02-16T05:15:25;24.83;;;11.53;;
21281;SDS011;10800;53.096;18.328;2024-02-16T05:20:32;31.13;;;12.73;;
21281;SDS011;10800;53.096;18.328;2024-02-16T05:25:39;25.20;;;12.67;;
21281;SDS011;10800;53.096;18.328;2024-02-16T05:30:45;25.20;;;12.07;;
21281;SDS011;10800;53.096;18.328;2024-02-16T05:35:50;25.93;;;12.00;;
21281;SDS011;10800;53.096;18.328;2024-02-16T05:41:00;31.37;;;13.00;;
21281;SDS011;10800;53.096;18.328;2024-02-16T05:46:05;25.77;;;12.47;;
21281;SDS011;10800;53.096;18.328;2024-02-16T05:51:11;23.17;;;12.67;;
21281;SDS011;10800;53.096;18.328;2024-02-16T05:56:18;24.00;;;11.53;;
21281;SDS011;10800;53.096;18.328;2024-02-16T06:01:23;30.17;;;11.83;;
21281;SDS011;10800;53.096;18.328;2024-02-16T06:06:30;29.13;;;13.30;;
21281;SDS011;10800;53.096;18.328;2024-02-16T06:11:36;26.30;;;12.17;;
21281;SDS011;10800;53.096;18.328;2024-02-16T06:16:42;31.90;;;13.70;;
21281;SDS011;10800;53.096;18.328;2024-02-16T06:21:50;30.57;;;13.53;;
21281;SDS011;10800;53.096;18.328;2024-02-16T06:26:59;32.87;;;12.70;;
21281;SDS011;10800;53.096;18.328;2024-02-16T06:32:04;23.10;;;11.00;;
21281;SDS011;10800;53.096;18.328;2024-02-16T06:37:11;21.13;;;10.67;;
21281;SDS011;10800;53.096;18.328;2024-02-16T06:42:16;23.30;;;11.37;;
21281;SDS011;10800;53.096;18.328;2024-02-16T06:47:21;23.57;;;10.93;;
21281;SDS011;10800;53.096;18.328;2024-02-16T06:52:29;25.40;;;12.30;;
21281;SDS011;10800;53.096;18.328;2024-02-16T06:57:35;25.73;;;12.47;;
21281;SDS011;10800;53.096;18.328;2024-02-16T07:02:40;23.77;;;11.53;;
21281;SDS011;10800;53.096;18.328;2024-02-16T07:07:47;26.23;;;12.47;;
21281;SDS011;10800;53.096;18.328;2024-02-16T07:12:54;20.13;;;11.17;;
21281;SDS011;10800;53.096;18.328;2024-02-16T07:17:59;27.13;;;12.57;;
21281;SDS011;10800;53.096;18.328;2024-02-16T07:23:06;21.93;;;10.57;;
21281;SDS011;10800;53.096;18.328;2024-02-16T07:28:13;18.53;;;10.03;;
21281;SDS011;10800;53.096;18.328;2024-02-16T07:33:19;20.17;;;10.30;;
21281;SDS011;10800;53.096;18.328;2024-02-16T07:38:25;19.67;;;10.40;;
21281;SDS011;10800;53.096;18.328;2024-02-16T07:43:32;23.47;;;11.33;;
21281;SDS011;10800;53.096;18.328;2024-02-16T07:48:38;19.27;;;9.97;;
21281;SDS011;10800;53.096;18.328;2024-02-16T07:53:44;18.10;;;10.77;;
21281;SDS011;10800;53.096;18.328;2024-02-16T07:58:50;30.53;;;12.47;;
21281;SDS011;10800;53.096;18.328;2024-02-16T08:03:56;22.60;;;11.57;;
21281;SDS011;10800;53.096;18.328;2024-02-16T08:09:04;28.33;;;11.53;;
21281;SDS011;10800;53.096;18.328;2024-02-16T08:14:10;23.23;;;12.43;;
21281;SDS011;10800;53.096;18.328;2024-02-16T08:19:15;25.30;;;12.23;;
21281;SDS011;10800;53.096;18.328;2024-02-16T08:24:22;30.23;;;11.20;;
21281;SDS011;10800;53.096;18.328;2024-02-16T08:29:27;26.50;;;14.03;;
21281;SDS011;10800;53.096;18.328;2024-02-16T08:34:33;23.50;;;12.53;;
21281;SDS011;10800;53.096;18.328;2024-02-16T08:39:41;24.90;;;13.77;;
21281;SDS011;10800;53.096;18.328;2024-02-16T08:44:46;20.43;;;10.80;;
21281;SDS011;10800;53.096;18.328;2024-02-16T08:49:54;20.90;;;12.37;;
21281;SDS011;10800;53.096;18.328;2024-02-16T08:55:00;24.60;;;12.30;;
21281;SDS011;10800;53.096;18.328;2024-02-16T09:00:06;23.50;;;11.30;;
21281;SDS011;10800;53.096;18.328;2024-02-16T09:05:13;20.70;;;11.57;;
21281;SDS011;10800;53.096;18.328;2024-02-16T09:10:25;24.60;;;11.53;;
21281;SDS011;10800;53.096;18.328;2024-02-16T09:15:30;21.63;;;11.30;;
21281;SDS011;10800;53.096;18.328;2024-02-16T09:20:36;25.23;;;11.77;;
21281;SDS011;10800;53.096;18.328;2024-02-16T09:25:41;25.80;;;11.43;;
21281;SDS011;10800;53.096;18.328;2024-02-16T09:30:48;17.63;;;10.80;;
21281;SDS011;10800;53.096;18.328;2024-02-16T09:35:54;19.27;;;9.00;;
21281;SDS011;10800;53.096;18.328;2024-02-16T09:40:59;17.40;;;9.83;;
21281;SDS011;10800;53.096;18.328;2024-02-16T09:46:05;20.97;;;9.77;;
21281;SDS011;10800;53.096;18.328;2024-02-16T09:51:13;26.33;;;10.47;;
21281;SDS011;10800;53.096;18.328;2024-02-16T09:56:19;20.03;;;9.83;;
21281;SDS011;10800;53.096;18.328;2024-02-16T10:01:25;16.67;;;8.67;;
21281;SDS011;10800;53.096;18.328;2024-02-16T10:06:32;17.93;;;8.27;;
21281;SDS011;10800;53.096;18.328;2024-02-16T10:11:37;24.93;;;9.60;;
21281;SDS011;10800;53.096;18.328;2024-02-16T10:17:00;14.50;;;8.07;;
21281;SDS011;10800;53.096;18.328;2024-02-16T10:22:08;17.00;;;8.40;;
21281;SDS011;10800;53.096;18.328;2024-02-16T10:27:17;16.87;;;7.80;;
21281;SDS011;10800;53.096;18.328;2024-02-16T10:32:24;19.93;;;8.90;;
21281;SDS011;10800;53.096;18.328;2024-02-16T10:37:30;17.40;;;8.67;;
21281;SDS011;10800;53.096;18.328;2024-02-16T10:42:36;17.40;;;7.43;;
21281;SDS011;10800;53.096;18.328;2024-02-16T10:47:42;21.07;;;9.17;;
21281;SDS011;10800;53.096;18.328;2024-02-16T10:52:47;26.63;;;10.93;;
21281;SDS011;10800;53.096;18.328;2024-02-16T10:57:55;17.07;;;8.17;;
21281;SDS011;10800;53.096;18.328;2024-02-16T11:03:03;16.47;;;8.33;;
21281;SDS011;10800;53.096;18.328;2024-02-16T11:08:13;19.60;;;7.53;;
21281;SDS011;10800;53.096;18.328;2024-02-16T11:13:24;14.30;;;7.10;;
21281;SDS011;10800;53.096;18.328;2024-02-16T11:18:32;14.77;;;7.37;;
21281;SDS011;10800;53.096;18.328;2024-02-16T11:23:39;11.83;;;6.20;;
21281;SDS011;10800;53.096;18.328;2024-02-16T11:28:45;15.77;;;6.73;;
21281;SDS011;10800;53.096;18.328;2024-02-16T11:33:50;16.47;;;7.00;;
21281;SDS011;10800;53.096;18.328;2024-02-16T11:38:56;11.63;;;6.63;;
21281;SDS011;10800;53.096;18.328;2024-02-16T11:44:02;14.37;;;7.47;;
21281;SDS011;10800;53.096;18.328;2024-02-16T11:49:08;16.07;;;7.40;;
21281;SDS011;10800;53.096;18.328;2024-02-16T11:54:17;13.10;;;8.17;;
21281;SDS011;10800;53.096;18.328;2024-02-16T11:59:23;12.80;;;6.80;;
21281;SDS011;10800;53.096;18.328;2024-02-16T12:04:29;19.83;;;7.63;;
21281;SDS011;10800;53.096;18.328;2024-02-16T12:09:36;14.30;;;7.13;;
21281;SDS011;10800;53.096;18.328;2024-02-16T12:14:42;19.73;;;7.07;;
21281;SDS011;10800;53.096;18.328;2024-02-16T12:19:49;16.83;;;7.17;;
21281;SDS011;10800;53.096;18.328;2024-02-16T12:24:56;12.83;;;6.93;;
21281;SDS011;10800;53.096;18.328;2024-02-16T12:30:03;15.20;;;7.60;;
21281;SDS011;10800;53.096;18.328;2024-02-16T12:35:09;11.33;;;6.37;;
21281;SDS011;10800;53.096;18.328;2024-02-16T12:40:15;15.87;;;7.27;;
21281;SDS011;10800;53.096;18.328;2024-02-16T12:45:21;17.30;;;7.00;;
21281;SDS011;10800;53.096;18.328;2024-02-16T12:50:28;13.17;;;6.90;;
21281;SDS011;10800;53.096;18.328;2024-02-16T12:55:35;15.67;;;5.73;;
21281;SDS011;10800;53.096;18.328;2024-02-16T13:00:41;16.50;;;6.73;;
21281;SDS011;10800;53.096;18.328;2024-02-16T13:05:46;10.37;;;6.00;;
21281;SDS011;10800;53.096;18.328;2024-02-16T13:10:52;17.30;;;7.30;;
21281;SDS011;10800;53.096;18.328;2024-02-16T13:15:57;10.83;;;6.80;;
21281;SDS011;10800;53.096;18.328;2024-02-16T13:21:03;11.90;;;6.20;;
21281;SDS011;10800;53.096;18.328;2024-02-16T13:26:08;14.40;;;6.03;;
21281;SDS011;10800;53.096;18.328;2024-02-16T13:31:14;14.27;;;6.87;;
21281;SDS011;10800;53.096;18.328;2024-02-16T13:36:19;12.17;;;6.50;;
21281;SDS011;10800;53.096;18.328;2024-02-16T13:41:25;12.40;;;5.40;;
21281;SDS011;10800;53.096;18.328;2024-02-16T13:46:31;35.77;;;7.63;;
21281;SDS011;10800;53.096;18.328;2024-02-16T13:51:36;10.60;;;5.10;;
21281;SDS011;10800;53.096;18.328;2024-02-16T13:56:42;12.63;;;5.70;;
21281;SDS011;10800;53.096;18.328;2024-02-16T14:01:47;9.90;;;4.67;;
21281;SDS011;10800;53.096;18.328;2024-02-16T14:06:53;12.10;;;5.40;;
21281;SDS011;10800;53.096;18.328;2024-02-16T14:11:58;12.50;;;5.23;;
21281;SDS011;10800;53.096;18.328;2024-02-16T14:17:04;11.10;;;5.03;;
21281;SDS011;10800;53.096;18.328;2024-02-16T14:22:10;12.37;;;6.10;;
21281;SDS011;10800;53.096;18.328;2024-02-16T14:27:16;12.93;;;5.93;;
21281;SDS011;10800;53.096;18.328;2024-02-16T14:32:21;11.77;;;5.10;;
21281;SDS011;10800;53.096;18.328;2024-02-16T14:37:27;9.93;;;5.50;;
21281;SDS011;10800;53.096;18.328;2024-02-16T14:42:32;11.50;;;5.73;;
21281;SDS011;10800;53.096;18.328;2024-02-16T14:47:38;11.70;;;6.50;;
21281;SDS011;10800;53.096;18.328;2024-02-16T14:52:44;10.40;;;5.53;;
21281;SDS011;10800;53.096;18.328;2024-02-16T14:57:49;9.90;;;5.17;;
21281;SDS011;10800;53.096;18.328;2024-02-16T15:02:55;8.93;;;5.07;;
21281;SDS011;10800;53.096;18.328;2024-02-16T15:08:01;16.80;;;6.73;;
21281;SDS011;10800;53.096;18.328;2024-02-16T15:13:08;32.67;;;11.73;;
21281;SDS011;10800;53.096;18.328;2024-02-16T15:18:14;16.47;;;8.07;;
21281;SDS011;10800;53.096;18.328;2024-02-16T15:23:19;23.07;;;10.80;;
21281;SDS011;10800;53.096;18.328;2024-02-16T15:28:25;11.57;;;5.70;;
21281;SDS011;10800;53.096;18.328;2024-02-16T15:33:30;17.23;;;7.80;;
21281;SDS011;10800;53.096;18.328;2024-02-16T15:38:36;15.40;;;7.30;;
21281;SDS011;10800;53.096;18.328;2024-02-16T15:43:41;25.30;;;12.10;;
21281;SDS011;10800;53.096;18.328;2024-02-16T15:48:47;25.13;;;10.60;;
21281;SDS011;10800;53.096;18.328;2024-02-16T15:53:54;21.43;;;6.37;;
21281;SDS011;10800;53.096;18.328;2024-02-16T15:58:59;24.27;;;8.27;;
21281;SDS011;10800;53.096;18.328;2024-02-16T16:04:05;15.37;;;6.17;;
21281;SDS011;10800;53.096;18.328;2024-02-16T16:09:10;14.57;;;6.73;;
21281;SDS011;10800;53.096;18.328;2024-02-16T16:14:16;18.33;;;7.40;;
21281;SDS011;10800;53.096;18.328;2024-02-16T16:19:22;13.03;;;6.67;;
21281;SDS011;10800;53.096;18.328;2024-02-16T16:24:28;13.67;;;6.27;;
21281;SDS011;10800;53.096;18.328;2024-02-16T16:29:33;18.70;;;7.40;;
21281;SDS011;10800;53.096;18.328;2024-02-16T16:34:39;14.47;;;6.90;;
21281;SDS011;10800;53.096;18.328;2024-02-16T16:39:45;16.83;;;7.83;;
21281;SDS011;10800;53.096;18.328;2024-02-16T16:44:50;7.97;;;4.33;;
21281;SDS011;10800;53.096;18.328;2024-02-16T16:49:56;10.93;;;7.57;;
21281;SDS011;10800;53.096;18.328;2024-02-16T16:55:02;15.97;;;6.97;;
21281;SDS011;10800;53.096;18.328;2024-02-16T17:00:09;12.37;;;5.13;;
21281;SDS011;10800;53.096;18.328;2024-02-16T17:05:15;8.50;;;5.47;;
21281;SDS011;10800;53.096;18.328;2024-02-16T17:10:22;12.00;;;6.30;;
21281;SDS011;10800;53.096;18.328;2024-02-16T17:15:28;18.97;;;7.20;;
21281;SDS011;10800;53.096;18.328;2024-02-16T17:20:36;22.70;;;10.87;;
21281;SDS011;10800;53.096;18.328;2024-02-16T17:25:43;21.00;;;9.97;;
21281;SDS011;10800;53.096;18.328;2024-02-16T17:30:48;14.47;;;7.30;;
21281;SDS011;10800;53.096;18.328;2024-02-16T17:35:54;9.23;;;5.87;;
21281;SDS011;10800;53.096;18.328;2024-02-16T17:41:00;14.33;;;7.00;;
21281;SDS011;10800;53.096;18.328;2024-02-16T17:46:06;15.77;;;6.10;;
21281;SDS011;10800;53.096;18.328;2024-02-16T17:51:11;12.57;;;5.90;;
21281;SDS011;10800;53.096;18.328;2024-02-16T17:56:17;14.53;;;7.00;;
21281;SDS011;10800;53.096;18.328;2024-02-16T18:01:23;15.43;;;5.70;;
21281;SDS011;10800;53.096;18.328;2024-02-16T18:06:28;10.70;;;5.40;;
21281;SDS011;10800;53.096;18.328;2024-02-16T18:11:34;24.53;;;8.37;;
21281;SDS011;10800;53.096;18.328;2024-02-16T18:16:39;13.10;;;5.23;;
21281;SDS011;10800;53.096;18.328;2024-02-16T18:21:44;11.23;;;5.50;;
21281;SDS011;10800;53.096;18.328;2024-02-16T18:26:50;12.20;;;5.67;;
21281;SDS011;10800;53.096;18.328;2024-02-16T18:31:55;8.20;;;4.67;;
21281;SDS011;10800;53.096;18.328;2024-02-16T18:37:01;10.47;;;5.13;;
21281;SDS011;10800;53.096;18.328;2024-02-16T18:42:07;20.90;;;7.50;;
21281;SDS011;10800;53.096;18.328;2024-02-16T18:47:13;16.77;;;7.37;;
21281;SDS011;10800;53.096;18.328;2024-02-16T18:52:19;12.90;;;6.03;;
21281;SDS011;10800;53.096;18.328;2024-02-16T18:57:25;20.13;;;7.33;;
21281;SDS011;10800;53.096;18.328;2024-02-16T19:02:31;10.27;;;5.03;;
21281;SDS011;10800;53.096;18.328;2024-02-16T19:07:37;13.77;;;6.33;;
21281;SDS011;10800;53.096;18.328;2024-02-16T19:12:43;11.23;;;5.87;;
21281;SDS011;10800;53.096;18.328;2024-02-16T19:17:48;20.73;;;8.27;;
21281;SDS011;10800;53.096;18.328;2024-02-16T19:22:54;15.90;;;6.80;;
21281;SDS011;10800;53.096;18.328;2024-02-16T19:27:59;12.00;;;5.20;;
21281;SDS011;10800;53.096;18.328;2024-02-16T19:33:05;11.33;;;4.97;;
21281;SDS011;10800;53.096;18.328;2024-02-16T19:38:12;22.77;;;6.07;;
21281;SDS011;10800;53.096;18.328;2024-02-16T19:43:18;14.17;;;5.07;;
21281;SDS011;10800;53.096;18.328;2024-02-16T19:48:24;12.53;;;5.90;;
21281;SDS011;10800;53.096;18.328;2024-02-16T19:53:30;9.63;;;5.47;;
21281;SDS011;10800;53.096;18.328;2024-02-16T19:58:35;14.73;;;5.40;;
21281;SDS011;10800;53.096;18.328;2024-02-16T20:03:41;13.07;;;5.47;;
21281;SDS011;10800;53.096;18.328;2024-02-16T20:08:47;12.60;;;5.37;;
21281;SDS011;10800;53.096;18.328;2024-02-16T20:13:52;10.70;;;5.97;;
21281;SDS011;10800;53.096;18.328;2024-02-16T20:18:58;19.33;;;6.63;;
21281;SDS011;10800;53.096;18.328;2024-02-16T20:24:04;13.50;;;5.37;;
21281;SDS011;10800;53.096;18.328;2024-02-16T20:29:11;15.17;;;6.30;;
21281;SDS011;10800;53.096;18.328;2024-02-16T20:34:16;9.70;;;5.37;;
21281;SDS011;10800;53.096;18.328;2024-02-16T20:39:22;11.67;;;5.57;;
21281;SDS011;10800;53.096;18.328;2024-02-16T20:44:28;13.60;;;5.70;;
21281;SDS011;10800;53.096;18.328;2024-02-16T20:49:33;12.83;;;5.60;;
21281;SDS011;10800;53.096;18.328;2024-02-16T20:54:39;11.47;;;5.70;;
21281;SDS011;10800;53.096;18.328;2024-02-16T20:59:44;18.63;;;5.63;;
21281;SDS011;10800;53.096;18.328;2024-02-16T21:04:50;14.27;;;5.80;;
21281;SDS011;10800;53.096;18.328;2024-02-16T21:09:55;10.07;;;5.47;;
21281;SDS011;10800;53.096;18.328;2024-02-16T21:15:01;10.83;;;5.40;;
21281;SDS011;10800;53.096;18.328;2024-02-16T21:20:07;15.33;;;6.40;;
21281;SDS011;10800;53.096;18.328;2024-02-16T21:25:13;14.77;;;5.83;;
21281;SDS011;10800;53.096;18.328;2024-02-16T21:30:19;12.93;;;5.50;;
21281;SDS011;10800;53.096;18.328;2024-02-16T21:35:24;13.50;;;5.97;;
21281;SDS011;10800;53.096;18.328;2024-02-16T21:40:33;19.33;;;6.40;;
21281;SDS011;10800;53.096;18.328;2024-02-16T21:45:39;14.47;;;6.50;;
21281;SDS011;10800;53.096;18.328;2024-02-16T21:50:44;11.47;;;5.83;;
21281;SDS011;10800;53.096;18.328;2024-02-16T21:55:50;14.30;;;6.33;;
21281;SDS011;10800;53.096;18.328;2024-02-16T22:00:55;12.93;;;6.97;;
21281;SDS011;10800;53.096;18.328;2024-02-16T22:06:01;13.83;;;6.80;;
21281;SDS011;10800;53.096;18.328;2024-02-16T22:11:09;13.07;;;6.77;;
21281;SDS011;10800;53.096;18.328;2024-02-16T22:16:14;19.20;;;6.50;;
21281;SDS011;10800;53.096;18.328;2024-02-16T22:21:20;11.83;;;6.17;;
21281;SDS011;10800;53.096;18.328;2024-02-16T22:26:28;21.10;;;7.57;;
21281;SDS011;10800;53.096;18.328;2024-02-16T22:31:34;18.77;;;6.47;;
21281;SDS011;10800;53.096;18.328;2024-02-16T22:36:41;16.03;;;6.37;;
21281;SDS011;10800;53.096;18.328;2024-02-16T22:41:46;21.10;;;6.77;;
21281;SDS011;10800;53.096;18.328;2024-02-16T22:46:52;19.57;;;7.57;;
21281;SDS011;10800;53.096;18.328;2024-02-16T22:51:57;14.97;;;6.57;;
21281;SDS011;10800;53.096;18.328;2024-02-16T22:57:03;15.27;;;7.10;;
21281;SDS011;10800;53.096;18.328;2024-02-16T23:02:09;15.23;;;6.90;;
21281;SDS011;10800;53.096;18.328;2024-02-16T23:07:15;14.90;;;7.57;;
21281;SDS011;10800;53.096;18.328;2024-02-16T23:12:24;19.03;;;7.80;;
21281;SDS011;10800;53.096;18.328;2024-02-16T23:17:30;15.53;;;7.20;;
21281;SDS011;10800;53.096;18.328;2024-02-16T23:22:55;16.70;;;7.53;;
21281;SDS011;10800;53.096;18.328;2024-02-16T23:28:01;18.97;;;7.30;;
21281;SDS011;10800;53.096;18.328;2024-02-16T23:33:07;14.90;;;7.30;;
21281;SDS011;10800;53.096;18.328;2024-02-16T23:38:14;16.03;;;7.57;;
21281;SDS011;10800;53.096;18.328;2024-02-16T23:43:20;19.77;;;7.67;;
21281;SDS011;10800;53.096;18.328;2024-02-16T23:48:25;17.97;;;7.03;;
21281;SDS011;10800;53.096;18.328;2024-02-16T23:53:33;16.20;;;7.77;;
21281;SDS011;10800;53.096;18.328;2024-02-16T23:58:38;15.63;;;6.87;;
